Time;durP1;ratioP1;P1;durP2;ratioP2;P2;SDS_P1;SDS_P2;PMS_P1;PMS_P2;Temp;Humidity;BMP_temperature;BMP_pressure;BME280_temperature;BME280_humidity;BME280_pressure;Samples;Min_cycle;Max_cycle;Signal;HPM_P1;HPM_P2
2021/12/22 00:01:35;;;;;;;49.50;18.80;;;;;;;;;;4995337;28;20041;-74
2021/12/22 00:04:00;;;;;;;;;;;;;;;;;;5004889;28;20053;-74
2021/12/22 00:06:27;;;;;;;50.00;17.45;;;;;;;;;;5014470;28;19913;-74
2021/12/22 00:08:53;;;;;;;50.55;19.55;;;;;;;;;;5009413;28;20030;-74
2021/12/22 00:11:19;;;;;;;54.90;19.52;;;;;;;;;;4985813;28;20081;-74
2021/12/22 00:13:45;;;;;;;55.75;19.95;;;;;;;;;;4995559;28;20035;-72
2021/12/22 00:16:10;;;;;;;51.77;19.53;;;;;;;;;;5005507;28;20058;-71
2021/12/22 00:18:36;;;;;;;54.10;18.73;;;;;;;;;;5016051;28;20076;-72
2021/12/22 00:21:03;;;;;;;43.40;17.13;;;;;;;;;;4993464;28;20057;-74
2021/12/22 00:23:29;;;;;;;48.33;18.58;;;;;;;;;;5003576;28;20046;-74
2021/12/22 00:25:54;;;;;;;53.53;18.20;;;;;;;;;;4999060;28;20097;-74
2021/12/22 00:28:20;;;;;;;51.40;20.07;;;;;;;;;;4991269;28;20034;-75
2021/12/22 00:30:46;;;;;;;52.47;19.23;;;;;;;;;;5001381;28;20081;-74
2021/12/22 00:33:12;;;;;;;60.28;20.45;;;;;;;;;;4996412;28;20038;-74
2021/12/22 00:35:41;;;;;;;67.18;20.70;;;;;;;;;;4999619;28;20112;-74
2021/12/22 00:38:08;;;;;;;55.90;19.40;;;;;;;;;;5005247;28;20042;-74
2021/12/22 00:40:34;;;;;;;68.30;22.00;;;;;;;;;;4993090;28;20104;-74
2021/12/22 00:43:00;;;;;;;57.80;20.13;;;;;;;;;;4999864;28;20471;-71
2021/12/22 00:45:28;;;;;;;53.17;19.87;;;;;;;;;;4994693;28;20034;-71
2021/12/22 00:47:53;;;;;;;55.17;18.38;;;;;;;;;;5002979;28;20042;-71
2021/12/22 00:50:19;;;;;;;53.43;19.83;;;;;;;;;;4994279;28;20030;-72
2021/12/22 00:52:44;;;;;;;54.83;21.27;;;;;;;;;;5000425;28;20279;-73
2021/12/22 00:55:13;;;;;;;62.50;19.73;;;;;;;;;;5001771;28;20042;-71
2021/12/22 00:57:39;;;;;;;61.97;20.00;;;;;;;;;;5015186;28;20045;-72
2021/12/22 01:00:07;;;;;;;60.23;21.33;;;;;;;;;;5000570;28;20038;-72
2021/12/22 01:02:33;;;;;;;58.47;19.23;;;;;;;;;;4999715;28;20087;-75
2021/12/22 01:04:58;;;;;;;57.40;20.07;;;;;;;;;;5015451;28;20379;-74
2021/12/22 01:07:24;;;;;;;47.70;20.27;;;;;;;;;;5010892;28;20045;-74
2021/12/22 01:09:50;;;;;;;63.37;19.67;;;;;;;;;;5029146;28;20041;-74
2021/12/22 01:12:15;;;;;;;67.53;21.42;;;;;;;;;;5012141;28;20029;-74
2021/12/22 01:14:41;;;;;;;59.60;20.00;;;;;;;;;;5027030;28;20490;-71
2021/12/22 01:17:10;;;;;;;55.80;19.03;;;;;;;;;;5005985;28;20034;-71
2021/12/22 01:19:58;;;;;;;53.08;19.13;;;;;;;;;;5010004;28;20034;-72
2021/12/22 01:22:35;;;;;;;53.47;18.98;;;;;;;;;;5008281;28;20066;-71
2021/12/22 01:25:03;;;;;;;50.72;19.30;;;;;;;;;;5007454;28;20073;-71
2021/12/22 01:27:38;;;;;;;47.72;17.45;;;;;;;;;;5028270;28;20425;-72
2021/12/22 01:30:12;;;;;;;50.83;18.25;;;;;;;;;;5009869;28;20046;-71
2021/12/22 01:32:38;;;;;;;50.17;17.55;;;;;;;;;;5005367;28;20487;-73
2021/12/22 01:35:07;;;;;;;52.83;17.30;;;;;;;;;;5006856;28;20536;-74
2021/12/22 01:37:33;;;;;;;49.22;17.30;;;;;;;;;;5027495;28;20074;-73
2021/12/22 01:40:01;;;;;;;53.20;17.83;;;;;;;;;;5012197;28;20058;-74
2021/12/22 01:42:28;;;;;;;42.13;17.48;;;;;;;;;;5005929;28;20061;-72
2021/12/22 01:45:14;;;;;;;51.38;17.80;;;;;;;;;;5011695;28;20427;-71
2021/12/22 01:50:39;;;;;;;60.63;20.90;;;;;;;;;;4997399;28;20137;-71
2021/12/22 01:53:30;;;;;;;55.78;17.30;;;;;;;;;;5006105;28;20470;-72
2021/12/22 01:56:10;;;;;;;53.92;17.95;;;;;;;;;;4996100;28;20069;-71
2021/12/22 01:58:40;;;;;;;44.90;17.48;;;;;;;;;;4981485;28;20442;-71
2021/12/22 02:01:06;;;;;;;51.15;17.20;;;;;;;;;;4999130;28;20042;-73
2021/12/22 02:03:32;;;;;;;49.85;17.90;;;;;;;;;;5004305;28;20042;-72
2021/12/22 02:05:58;;;;;;;51.08;18.38;;;;;;;;;;5010499;28;20042;-72
2021/12/22 02:08:23;;;;;;;46.57;17.60;;;;;;;;;;4997385;28;20048;-72
2021/12/22 02:10:49;;;;;;;51.97;20.53;;;;;;;;;;5011537;28;20041;-71
2021/12/22 02:13:20;;;;;;;50.60;19.07;;;;;;;;;;4996550;28;20050;-71
2021/12/22 02:15:47;;;;;;;55.25;18.55;;;;;;;;;;5007051;28;20049;-72
2021/12/22 02:18:18;;;;;;;49.20;18.92;;;;;;;;;;4996157;28;20402;-71
2021/12/22 02:20:48;;;;;;;48.55;17.63;;;;;;;;;;5012346;28;20084;-71
2021/12/22 02:23:14;;;;;;;58.17;18.10;;;;;;;;;;4998835;28;20096;-71
2021/12/22 02:25:48;;;;;;;52.42;19.10;;;;;;;;;;5001222;28;20059;-72
2021/12/22 02:28:20;;;;;;;46.60;17.38;;;;;;;;;;5023207;28;20041;-74
2021/12/22 02:30:45;;;;;;;57.38;19.38;;;;;;;;;;4997341;28;20502;-75
2021/12/22 02:33:22;;;;;;;48.10;18.37;;;;;;;;;;5010302;28;20074;-72
2021/12/22 02:36:08;;;;;;;53.97;19.00;;;;;;;;;;5001973;28;20028;-73
2021/12/22 02:38:36;;;;;;;46.53;17.77;;;;;;;;;;5003349;28;20474;-73
2021/12/22 02:41:02;;;;;;;45.88;16.23;;;;;;;;;;4995598;28;20078;-72
2021/12/22 02:43:32;;;;;;;42.38;15.32;;;;;;;;;;4998600;28;20065;-73
2021/12/22 02:45:57;;;;;;;50.65;17.83;;;;;;;;;;5005019;28;20044;-73
2021/12/22 02:48:27;;;;;;;50.53;18.30;;;;;;;;;;5014553;28;20042;-73
2021/12/22 02:50:55;;;;;;;44.53;17.50;;;;;;;;;;5019069;28;20030;-72
2021/12/22 02:53:25;;;;;;;48.90;16.90;;;;;;;;;;4994403;28;20042;-73
2021/12/22 02:56:02;;;;;;;42.97;16.38;;;;;;;;;;5003403;28;20442;-73
2021/12/22 03:01:12;;;;;;;47.42;17.20;;;;;;;;;;5014979;28;20055;-72
2021/12/22 03:03:53;;;;;;;42.72;17.70;;;;;;;;;;4993872;28;20498;-72
2021/12/22 03:06:28;;;;;;;40.22;16.10;;;;;;;;;;4995866;28;20054;-72
2021/12/22 03:08:53;;;;;;;43.97;16.58;;;;;;;;;;5020189;28;20510;-72
2021/12/22 03:11:19;;;;;;;50.07;16.60;;;;;;;;;;4999511;28;20034;-74
2021/12/22 03:13:45;;;;;;;48.17;18.23;;;;;;;;;;5004915;28;20084;-73
2021/12/22 03:16:11;;;;;;;45.45;16.88;;;;;;;;;;5002978;28;20062;-73
2021/12/22 03:18:37;;;;;;;50.55;16.65;;;;;;;;;;5024568;28;20061;-75
2021/12/22 03:21:17;;;;;;;49.15;18.13;;;;;;;;;;5010249;28;20038;-73
2021/12/22 03:23:42;;;;;;;46.80;16.83;;;;;;;;;;4994645;28;20433;-75
2021/12/22 03:26:08;;;;;;;54.10;18.43;;;;;;;;;;5003021;28;20038;-77
2021/12/22 03:28:33;;;;;;;42.43;16.00;;;;;;;;;;5006768;28;20069;-72
2021/12/22 03:30:59;;;;;;;41.13;16.63;;;;;;;;;;5002239;28;20133;-72
2021/12/22 03:33:25;;;;;;;46.43;16.83;;;;;;;;;;5001420;28;20487;-72
2021/12/22 03:35:50;;;;;;;47.50;16.97;;;;;;;;;;5003956;28;20090;-72
2021/12/22 03:38:16;;;;;;;49.43;18.13;;;;;;;;;;5010201;28;20395;-72
2021/12/22 03:40:41;;;;;;;44.53;15.13;;;;;;;;;;5004045;28;20034;-73
2021/12/22 03:43:07;;;;;;;47.27;15.97;;;;;;;;;;4993025;28;20031;-72
2021/12/22 03:45:32;;;;;;;43.40;15.77;;;;;;;;;;5001256;28;20037;-72
2021/12/22 03:47:57;;;;;;;48.80;17.97;;;;;;;;;;4991459;28;20041;-71
2021/12/22 03:50:23;;;;;;;43.70;17.17;;;;;;;;;;5010255;28;20437;-72
2021/12/22 03:52:49;;;;;;;47.80;20.23;;;;;;;;;;4993630;28;20045;-72
2021/12/22 03:55:15;;;;;;;45.95;15.65;;;;;;;;;;5000364;28;20066;-72
2021/12/22 03:57:40;;;;;;;39.37;15.47;;;;;;;;;;4995802;28;20073;-72
2021/12/22 04:00:08;;;;;;;38.53;16.57;;;;;;;;;;4997548;28;20030;-72
2021/12/22 04:02:33;;;;;;;41.17;16.40;;;;;;;;;;5009264;28;20040;-72
2021/12/22 04:04:59;;;;;;;33.50;14.57;;;;;;;;;;5008238;28;20035;-72
2021/12/22 04:07:24;;;;;;;35.93;16.03;;;;;;;;;;5000936;28;20084;-71
2021/12/22 04:09:50;;;;;;;49.87;15.40;;;;;;;;;;5009136;28;20471;-72
2021/12/22 04:12:15;;;;;;;39.33;14.80;;;;;;;;;;5003371;28;20068;-72
2021/12/22 04:14:41;;;;;;;36.03;15.50;;;;;;;;;;5001918;28;20383;-72
2021/12/22 04:17:06;;;;;;;41.67;15.57;;;;;;;;;;5001342;28;20121;-73
2021/12/22 04:19:31;;;;;;;44.90;16.37;;;;;;;;;;4993899;28;20108;-72
2021/12/22 04:21:57;;;;;;;46.80;15.77;;;;;;;;;;4997472;28;20062;-72
2021/12/22 04:24:23;;;;;;;42.93;16.67;;;;;;;;;;5010723;28;20073;-72
2021/12/22 04:26:50;;;;;;;45.30;17.70;;;;;;;;;;5007014;28;20535;-72
2021/12/22 04:29:16;;;;;;;43.40;16.42;;;;;;;;;;5022224;28;20168;-72
2021/12/22 04:31:41;;;;;;;38.47;16.70;;;;;;;;;;5008031;28;20116;-74
2021/12/22 04:34:09;;;;;;;42.37;15.17;;;;;;;;;;4997718;28;20068;-74
2021/12/22 04:36:36;;;;;;;47.22;15.07;;;;;;;;;;4997480;28;20053;-74
2021/12/22 04:39:03;;;;;;;39.78;15.77;;;;;;;;;;5011650;28;20042;-75
2021/12/22 04:41:28;;;;;;;39.13;15.32;;;;;;;;;;5003992;28;20041;-74
2021/12/22 04:43:54;;;;;;;45.63;15.43;;;;;;;;;;5008247;28;20367;-72
2021/12/22 04:46:20;;;;;;;39.10;15.53;;;;;;;;;;5009280;28;20044;-72
2021/12/22 04:48:46;;;;;;;49.70;15.75;;;;;;;;;;5010770;28;20057;-72
2021/12/22 04:51:24;;;;;;;42.17;15.93;;;;;;;;;;5009078;28;20082;-72
2021/12/22 04:54:01;;;;;;;39.15;14.65;;;;;;;;;;5002384;28;20034;-72
2021/12/22 04:56:27;;;;;;;;;;;;;;;;;;5021798;28;20038;-72
2021/12/22 04:58:52;;;;;;;35.97;13.80;;;;;;;;;;5002629;28;20698;-72
2021/12/22 05:01:18;;;;;;;40.30;15.17;;;;;;;;;;5004046;28;20105;-72
2021/12/22 05:03:43;;;;;;;44.57;16.20;;;;;;;;;;4997565;28;20101;-73
2021/12/22 05:06:09;;;;;;;39.87;15.60;;;;;;;;;;4998628;28;20038;-74
2021/12/22 05:08:34;;;;;;;48.90;16.80;;;;;;;;;;5009128;28;20042;-72
2021/12/22 05:11:00;;;;;;;47.60;16.33;;;;;;;;;;5000845;28;20084;-73
2021/12/22 05:13:25;;;;;;;44.13;14.43;;;;;;;;;;4992034;28;20046;-72
2021/12/22 05:15:52;;;;;;;43.13;15.77;;;;;;;;;;5004881;28;20030;-72
2021/12/22 05:18:35;;;;;;;38.10;14.73;;;;;;;;;;5017156;28;20064;-72
2021/12/22 05:21:01;;;;;;;42.97;15.23;;;;;;;;;;5002252;28;20048;-72
2021/12/22 05:23:26;;;;;;;45.03;17.90;;;;;;;;;;4997951;28;20050;-72
2021/12/22 05:25:52;;;;;;;42.93;15.57;;;;;;;;;;5002135;28;20161;-72
2021/12/22 05:28:17;;;;;;;40.67;15.70;;;;;;;;;;5004369;28;20041;-72
2021/12/22 05:30:46;;;;;;;39.40;14.37;;;;;;;;;;4998428;28;20164;-74
2021/12/22 05:33:11;;;;;;;48.40;17.33;;;;;;;;;;5011895;28;20065;-74
2021/12/22 05:35:37;;;;;;;43.30;16.73;;;;;;;;;;5000890;28;20462;-74
2021/12/22 05:38:02;;;;;;;32.80;14.17;;;;;;;;;;4998745;28;20038;-74
2021/12/22 05:40:28;;;;;;;48.37;18.80;;;;;;;;;;5024489;28;20042;-74
2021/12/22 05:42:54;;;;;;;45.57;15.03;;;;;;;;;;5020531;28;20030;-72
2021/12/22 05:45:20;;;;;;;40.10;17.17;;;;;;;;;;4999103;28;20470;-73
2021/12/22 05:47:45;;;;;;;36.80;14.90;;;;;;;;;;5003777;28;20038;-72
2021/12/22 05:50:10;;;;;;;46.90;16.70;;;;;;;;;;5012701;28;20379;-72
2021/12/22 05:52:36;;;;;;;45.43;15.87;;;;;;;;;;5005183;28;20034;-72
2021/12/22 05:55:02;;;;;;;37.87;15.73;;;;;;;;;;4993965;28;20485;-72
2021/12/22 05:57:28;;;;;;;53.38;18.58;;;;;;;;;;4996729;28;20414;-72
2021/12/22 05:59:53;;;;;;;46.93;20.13;;;;;;;;;;4996781;28;20045;-71
2021/12/22 06:02:19;;;;;;;54.90;20.13;;;;;;;;;;5001854;28;20117;-72
2021/12/22 06:04:44;;;;;;;52.43;18.13;;;;;;;;;;5003031;28;20034;-71
2021/12/22 06:07:09;;;;;;;54.73;20.47;;;;;;;;;;4994680;28;20074;-72
2021/12/22 06:09:35;;;;;;;53.27;18.83;;;;;;;;;;4996636;28;20474;-72
2021/12/22 06:12:00;;;;;;;52.60;20.37;;;;;;;;;;5013640;28;20052;-71
2021/12/22 06:14:26;;;;;;;47.40;18.17;;;;;;;;;;5000421;28;20025;-72
2021/12/22 06:16:51;;;;;;;49.40;19.37;;;;;;;;;;4994074;28;20039;-72
2021/12/22 06:19:16;;;;;;;45.70;17.43;;;;;;;;;;4996962;28;20034;-72
2021/12/22 06:21:42;;;;;;;47.13;16.15;;;;;;;;;;4960117;28;1225539;-71
2021/12/22 06:24:08;;;;;;;59.67;18.53;;;;;;;;;;5017011;28;20072;-71
2021/12/22 06:26:34;;;;;;;52.33;19.57;;;;;;;;;;5013516;28;20049;-72
2021/12/22 06:28:59;;;;;;;53.75;19.67;;;;;;;;;;5020779;28;20471;-71
2021/12/22 06:31:24;;;;;;;53.80;18.60;;;;;;;;;;4999974;28;20410;-72
2021/12/22 06:33:50;;;;;;;52.93;19.80;;;;;;;;;;5000583;28;20029;-72
2021/12/22 06:36:17;;;;;;;46.10;17.83;;;;;;;;;;4999359;28;20092;-72
2021/12/22 06:38:42;;;;;;;44.17;17.38;;;;;;;;;;5019791;28;20129;-71
2021/12/22 06:41:08;;;;;;;44.43;17.03;;;;;;;;;;5007292;28;20120;-71
2021/12/22 06:43:33;;;;;;;43.93;16.57;;;;;;;;;;5009747;28;20532;-72
2021/12/22 06:45:58;;;;;;;50.97;16.40;;;;;;;;;;5019936;28;20046;-71
2021/12/22 06:48:24;;;;;;;58.17;18.43;;;;;;;;;;4996651;28;20030;-71
2021/12/22 06:50:49;;;;;;;36.70;16.13;;;;;;;;;;5008892;28;20452;-72
2021/12/22 06:53:15;;;;;;;44.90;16.90;;;;;;;;;;4996486;28;20121;-72
2021/12/22 06:55:40;;;;;;;56.67;17.40;;;;;;;;;;5008078;28;20152;-72
2021/12/22 06:58:06;;;;;;;53.77;16.77;;;;;;;;;;5003350;28;20395;-71
2021/12/22 07:00:32;;;;;;;47.83;17.50;;;;;;;;;;5003965;28;20031;-72
2021/12/22 07:02:58;;;;;;;55.00;19.57;;;;;;;;;;5001972;28;20057;-71
2021/12/22 07:05:24;;;;;;;46.78;16.38;;;;;;;;;;4999100;28;20030;-72
2021/12/22 07:07:49;;;;;;;54.53;16.53;;;;;;;;;;4994317;28;20038;-72
2021/12/22 07:10:15;;;;;;;54.83;18.17;;;;;;;;;;4999786;28;20030;-72
2021/12/22 07:12:42;;;;;;;55.10;16.27;;;;;;;;;;5003200;28;20053;-71
2021/12/22 07:15:10;;;;;;;43.45;16.83;;;;;;;;;;5008746;28;20104;-71
2021/12/22 07:17:36;;;;;;;46.67;15.68;;;;;;;;;;4989840;28;20411;-71
2021/12/22 07:20:02;;;;;;;;;;;;;;;;;;5018076;28;20030;-72
2021/12/22 07:22:28;;;;;;;48.13;16.25;;;;;;;;;;4995435;28;19941;-71
2021/12/22 07:24:53;;;;;;;43.87;15.60;;;;;;;;;;4997702;28;20037;-72
2021/12/22 07:27:19;;;;;;;49.43;16.90;;;;;;;;;;4997891;28;20113;-72
2021/12/22 07:29:44;;;;;;;49.93;17.33;;;;;;;;;;5003900;28;20037;-71
2021/12/22 07:32:09;;;;;;;41.93;16.10;;;;;;;;;;4996404;28;20026;-74
2021/12/22 07:34:51;;;;;;;54.93;17.20;;;;;;;;;;4996474;28;20401;-74
2021/12/22 07:37:32;;;;;;;50.75;18.48;;;;;;;;;;5017837;28;20076;-75
2021/12/22 07:39:57;;;;;;;54.55;16.65;;;;;;;;;;4999955;28;20053;-74
2021/12/22 07:42:23;;;;;;;53.33;17.87;;;;;;;;;;4998136;28;20041;-74
2021/12/22 07:44:48;;;;;;;49.37;18.30;;;;;;;;;;5000829;28;20093;-73
2021/12/22 07:47:14;;;;;;;42.23;17.37;;;;;;;;;;5003474;28;20513;-71
2021/12/22 07:49:39;;;;;;;56.97;19.97;;;;;;;;;;5001488;28;20034;-71
2021/12/22 07:52:05;;;;;;;63.13;19.33;;;;;;;;;;5020281;28;20061;-71
2021/12/22 07:54:30;;;;;;;53.77;17.43;;;;;;;;;;4994654;28;20053;-71
2021/12/22 07:56:55;;;;;;;43.37;16.17;;;;;;;;;;4998500;28;20121;-71
2021/12/22 07:59:21;;;;;;;54.53;17.53;;;;;;;;;;4992087;28;20086;-71
2021/12/22 08:01:46;;;;;;;54.00;17.63;;;;;;;;;;4997455;28;20050;-71
2021/12/22 08:04:12;;;;;;;53.27;19.67;;;;;;;;;;4996092;28;20141;-71
2021/12/22 08:06:38;;;;;;;56.80;19.90;;;;;;;;;;5002124;28;20034;-71
2021/12/22 08:09:04;;;;;;;69.63;21.20;;;;;;;;;;5002837;28;20113;-71
2021/12/22 08:11:29;;;;;;;53.63;18.13;;;;;;;;;;5000104;28;20202;-71
2021/12/22 08:13:55;;;;;;;54.03;18.23;;;;;;;;;;4999289;28;20060;-71
2021/12/22 08:16:20;;;;;;;55.23;19.13;;;;;;;;;;4993456;28;20458;-72
2021/12/22 08:18:46;;;;;;;53.17;18.80;;;;;;;;;;4997613;28;20042;-71
2021/12/22 08:21:11;;;;;;;63.27;23.57;;;;;;;;;;4993997;28;20115;-71
2021/12/22 08:23:37;;;;;;;60.37;20.40;;;;;;;;;;4995124;28;20082;-71
2021/12/22 08:26:02;;;;;;;60.40;21.07;;;;;;;;;;4998545;28;20053;-72
2021/12/22 08:28:28;;;;;;;54.07;19.77;;;;;;;;;;4998153;28;20387;-71
2021/12/22 08:30:53;;;;;;;51.63;19.17;;;;;;;;;;5011910;28;20113;-74
2021/12/22 08:33:24;;;;;;;60.07;20.27;;;;;;;;;;4996656;28;20042;-75
2021/12/22 08:38:51;;;;;;;90.10;27.65;;;;;;;;;;4994699;28;20044;-74
2021/12/22 08:41:29;;;;;;;85.75;29.05;;;;;;;;;;4995336;28;20092;-74
2021/12/22 08:43:56;;;;;;;82.70;29.60;;;;;;;;;;5006454;28;20030;-74
2021/12/22 08:46:22;;;;;;;90.93;30.90;;;;;;;;;;5012813;28;20430;-72
2021/12/22 08:48:48;;;;;;;77.33;29.43;;;;;;;;;;4997441;28;20092;-71
2021/12/22 08:51:14;;;;;;;86.50;28.00;;;;;;;;;;4993198;28;20272;-71
2021/12/22 08:53:40;;;;;;;101.23;28.07;;;;;;;;;;5003263;28;20407;-71
2021/12/22 08:56:05;;;;;;;87.87;26.27;;;;;;;;;;5018213;28;20030;-71
2021/12/22 08:58:31;;;;;;;90.13;30.87;;;;;;;;;;4994629;28;20038;-71
2021/12/22 09:00:56;;;;;;;75.13;29.50;;;;;;;;;;5011617;28;20442;-71
2021/12/22 09:03:21;;;;;;;53.07;21.90;;;;;;;;;;4999147;28;20038;-71
2021/12/22 09:05:47;;;;;;;57.43;20.23;;;;;;;;;;5005022;28;20048;-71
2021/12/22 09:08:12;;;;;;;67.73;23.70;;;;;;;;;;5005374;28;20060;-70
2021/12/22 09:10:38;;;;;;;75.00;24.17;;;;;;;;;;5001669;28;20038;-71
2021/12/22 09:13:03;;;;;;;80.33;22.93;;;;;;;;;;4999130;28;20035;-71
2021/12/22 09:15:29;;;;;;;60.00;20.43;;;;;;;;;;5004496;28;20104;-71
2021/12/22 09:17:54;;;;;;;56.47;23.10;;;;;;;;;;5000566;28;20064;-71
2021/12/22 09:20:20;;;;;;;62.07;21.27;;;;;;;;;;5000377;28;20354;-72
2021/12/22 09:22:45;;;;;;;57.97;22.37;;;;;;;;;;4996739;28;20134;-71
2021/12/22 09:25:10;;;;;;;76.93;29.63;;;;;;;;;;4998712;28;20038;-71
2021/12/22 09:27:36;;;;;;;91.27;32.83;;;;;;;;;;4999109;28;20035;-71
2021/12/22 09:30:03;;;;;;;68.77;28.90;;;;;;;;;;5018297;28;20035;-71
2021/12/22 09:32:28;;;;;;;70.90;27.92;;;;;;;;;;4998960;28;20034;-71
2021/12/22 09:34:54;;;;;;;62.80;25.30;;;;;;;;;;5003057;28;20038;-71
2021/12/22 09:37:19;;;;;;;69.83;23.40;;;;;;;;;;5001771;28;20042;-73
2021/12/22 09:39:45;;;;;;;66.73;26.00;;;;;;;;;;4995139;28;20088;-71
2021/12/22 09:42:11;;;;;;;69.77;28.37;;;;;;;;;;5001191;28;20038;-70
2021/12/22 09:44:44;;;;;;;60.20;24.00;;;;;;;;;;5000446;28;20062;-71
2021/12/22 09:47:16;;;;;;;62.53;23.15;;;;;;;;;;4995927;28;20034;-72
2021/12/22 09:52:27;;;;;;;50.33;19.80;;;;;;;;;;5006329;28;20545;-71
2021/12/22 09:54:55;;;;;;;44.92;18.40;;;;;;;;;;5005122;28;20035;-71
2021/12/22 09:57:21;;;;;;;39.95;16.30;;;;;;;;;;5007645;28;20371;-72
2021/12/22 09:59:48;;;;;;;36.80;14.52;;;;;;;;;;4999241;28;20475;-71
2021/12/22 10:02:15;;;;;;;30.23;13.30;;;;;;;;;;4997993;28;20494;-71
2021/12/22 10:04:40;;;;;;;;;;;;;;;;;;4997610;28;20061;-71
2021/12/22 10:07:08;;;;;;;29.00;13.88;;;;;;;;;;5003660;28;20004;-71
2021/12/22 10:09:42;;;;;;;29.45;12.77;;;;;;;;;;5001586;28;20030;-72
2021/12/22 10:12:14;;;;;;;28.60;15.13;;;;;;;;;;4987121;28;20112;-71
2021/12/22 10:14:47;;;;;;;32.85;14.38;;;;;;;;;;5010061;28;20121;-72
2021/12/22 10:17:27;;;;;;;33.58;14.77;;;;;;;;;;5014676;28;20057;-71
2021/12/22 10:19:56;;;;;;;29.25;13.32;;;;;;;;;;4996536;28;20182;-72
2021/12/22 10:22:29;;;;;;;28.10;13.07;;;;;;;;;;4998584;28;20177;-74
2021/12/22 10:25:00;;;;;;;33.15;14.07;;;;;;;;;;5020013;28;20471;-74
2021/12/22 10:27:27;;;;;;;32.45;13.35;;;;;;;;;;5024295;28;20452;-73
2021/12/22 10:29:52;;;;;;;;;;;;;;;;;;4997836;28;20030;-76
2021/12/22 10:32:18;;;;;;;36.30;13.15;;;;;;;;;;5020539;28;20297;-73
2021/12/22 10:34:58;;;;;;;40.70;14.73;;;;;;;;;;5007995;28;20045;-73
2021/12/22 10:37:36;;;;;;;25.42;12.98;;;;;;;;;;4995071;28;20030;-74
2021/12/22 10:40:26;;;;;;;31.65;13.20;;;;;;;;;;5004870;28;20034;-74
2021/12/22 10:42:52;;;;;;;25.20;12.15;;;;;;;;;;5010188;28;20043;-74
2021/12/22 10:45:19;;;;;;;25.90;11.75;;;;;;;;;;4986913;28;20382;-74
2021/12/22 10:50:45;;;;;;;24.50;12.77;;;;;;;;;;5010847;28;20111;-74
2021/12/22 10:53:13;;;;;;;23.70;12.60;;;;;;;;;;5000944;28;20037;-78
2021/12/22 10:55:45;;;;;;;27.73;12.90;;;;;;;;;;5012573;28;20038;-74
2021/12/22 10:58:28;;;;;;;23.70;11.10;;;;;;;;;;5012567;28;20041;-73
2021/12/22 11:01:00;;;;;;;27.80;10.57;;;;;;;;;;4985164;28;20045;-75
2021/12/22 11:03:43;;;;;;;26.10;12.18;;;;;;;;;;4996278;28;20073;-73
2021/12/22 11:06:23;;;;;;;25.08;11.57;;;;;;;;;;4984819;28;20042;-74
2021/12/22 11:09:13;;;;;;;27.17;11.45;;;;;;;;;;5001003;28;20509;-73
2021/12/22 11:11:43;;;;;;;25.33;10.65;;;;;;;;;;4997740;28;20117;-73
2021/12/22 11:14:09;;;;;;;24.10;11.25;;;;;;;;;;4993717;28;20034;-73
2021/12/22 11:16:57;;;;;;;24.80;11.23;;;;;;;;;;5011558;28;20425;-73
2021/12/22 11:19:24;;;;;;;24.98;10.88;;;;;;;;;;4990050;28;20053;-75
2021/12/22 11:22:00;;;;;;;27.83;12.20;;;;;;;;;;5007000;28;20120;-71
2021/12/22 11:24:27;;;;;;;25.02;11.43;;;;;;;;;;4998288;28;20026;-71
2021/12/22 11:26:53;;;;;;;25.80;10.57;;;;;;;;;;5007538;28;20037;-71
2021/12/22 11:29:18;;;;;;;28.50;11.73;;;;;;;;;;4998540;28;20038;-71
2021/12/22 11:31:46;;;;;;;29.23;13.33;;;;;;;;;;5006278;28;20033;-73
2021/12/22 11:34:14;;;;;;;42.80;12.95;;;;;;;;;;4997427;28;20092;-73
2021/12/22 11:36:40;;;;;;;22.10;11.20;;;;;;;;;;5016350;28;20053;-73
2021/12/22 11:39:05;;;;;;;25.93;10.00;;;;;;;;;;4999559;28;20398;-73
2021/12/22 11:41:31;;;;;;;22.10;11.13;;;;;;;;;;5003240;28;20073;-73
2021/12/22 11:43:57;;;;;;;20.77;10.07;;;;;;;;;;5005951;28;20348;-71
2021/12/22 11:46:26;;;;;;;22.60;10.73;;;;;;;;;;5001562;28;20475;-71
2021/12/22 11:48:52;;;;;;;23.20;10.00;;;;;;;;;;5005013;28;20073;-71
2021/12/22 11:51:23;;;;;;;22.97;9.60;;;;;;;;;;4992810;28;20074;-71
2021/12/22 11:53:53;;;;;;;19.33;8.95;;;;;;;;;;5005815;28;20034;-71
2021/12/22 11:56:37;;;;;;;21.17;10.80;;;;;;;;;;5000445;28;20407;-71
2021/12/22 11:59:03;;;;;;;24.48;9.70;;;;;;;;;;4996242;28;20069;-71
2021/12/22 12:01:28;;;;;;;17.77;8.97;;;;;;;;;;4994245;28;20479;-73
2021/12/22 12:04:11;;;;;;;21.33;10.13;;;;;;;;;;5006019;28;20030;-73
2021/12/22 12:06:49;;;;;;;21.42;10.07;;;;;;;;;;5008968;28;20048;-73
2021/12/22 12:09:15;;;;;;;18.95;9.70;;;;;;;;;;5002213;28;20034;-75
2021/12/22 12:14:31;;;;;;;19.83;9.93;;;;;;;;;;5007800;28;20046;-71
2021/12/22 12:23:31;;;;;;;20.55;10.30;;;;;;;;;;4993872;28;20142;-74
2021/12/22 12:25:59;;;;;;;24.77;10.75;;;;;;;;;;5015958;28;20466;-74
2021/12/22 12:28:25;;;;;;;30.20;12.25;;;;;;;;;;4992430;28;20038;-74
2021/12/22 12:30:59;;;;;;;15.82;10.30;;;;;;;;;;4993174;28;20505;-74
2021/12/22 12:33:24;;;;;;;24.30;9.05;;;;;;;;;;5004579;28;20150;-75
2021/12/22 12:35:57;;;;;;;15.23;8.90;;;;;;;;;;4993741;28;20038;-74
2021/12/22 12:38:43;;;;;;;18.80;8.73;;;;;;;;;;4988406;28;20038;-78
2021/12/22 12:41:20;;;;;;;17.98;9.32;;;;;;;;;;4990941;28;20054;-73
2021/12/22 12:43:49;;;;;;;16.73;9.02;;;;;;;;;;5012409;28;20049;-74
2021/12/22 12:48:53;;;;;;;21.92;8.82;;;;;;;;;;4999757;28;20197;-74
2021/12/22 12:51:29;;;;;;;23.70;9.43;;;;;;;;;;4997604;28;20050;-74
2021/12/22 12:53:57;;;;;;;22.92;9.52;;;;;;;;;;4997526;28;20136;-74
2021/12/22 12:56:33;;;;;;;18.75;9.15;;;;;;;;;;5018907;28;20061;-74
2021/12/22 12:59:09;;;;;;;21.25;9.63;;;;;;;;;;4998667;28;20033;-75
2021/12/22 13:01:47;;;;;;;19.38;10.05;;;;;;;;;;5005260;28;20398;-74
2021/12/22 13:04:31;;;;;;;;;;;;;;;;;;5003645;28;20121;-74
2021/12/22 13:07:14;;;;;;;16.38;9.40;;;;;;;;;;4997054;28;20358;-73
2021/12/22 13:09:44;;;;;;;16.85;8.05;;;;;;;;;;4998231;28;20060;-74
2021/12/22 13:12:18;;;;;;;21.23;9.85;;;;;;;;;;5003681;28;20440;-74
2021/12/22 13:17:39;;;;;;;21.55;8.18;;;;;;;;;;5024473;28;20418;-73
2021/12/22 13:20:06;;;;;;;19.98;7.47;;;;;;;;;;5013983;28;20029;-74
2021/12/22 13:22:34;;;;;;;17.38;8.00;;;;;;;;;;5014438;28;20057;-74
2021/12/22 13:25:32;;;;;;;18.92;8.15;;;;;;;;;;4997685;28;20041;-74
2021/12/22 13:28:02;;;;;;;17.75;8.35;;;;;;;;;;4989769;28;20153;-73
2021/12/22 13:30:39;;;;;;;20.45;9.82;;;;;;;;;;5006556;28;20042;-74
2021/12/22 13:33:06;;;;;;;;;;;;;;;;;;5018283;28;20042;-74
2021/12/22 13:35:34;;;;;;;30.83;8.95;;;;;;;;;;5003435;28;19917;-74
2021/12/22 13:38:01;;;;;;;21.27;8.80;;;;;;;;;;5000761;28;20037;-74
2021/12/22 13:40:41;;;;;;;15.07;7.30;;;;;;;;;;5003918;28;20045;-75
2021/12/22 13:43:07;;;;;;;13.40;6.95;;;;;;;;;;4994683;28;20050;-73
2021/12/22 13:45:33;;;;;;;17.52;8.30;;;;;;;;;;5013372;28;20498;-74
2021/12/22 13:48:00;;;;;;;11.52;6.85;;;;;;;;;;4999524;28;20044;-74
2021/12/22 13:50:26;;;;;;;18.20;9.63;;;;;;;;;;4990443;28;20042;-75
2021/12/22 13:52:51;;;;;;;20.02;7.95;;;;;;;;;;4990719;28;20038;-74
2021/12/22 13:55:17;;;;;;;17.00;8.23;;;;;;;;;;5008175;28;20397;-74
2021/12/22 13:57:42;;;;;;;17.43;8.30;;;;;;;;;;5014184;28;20043;-74
2021/12/22 14:00:08;;;;;;;19.37;10.37;;;;;;;;;;5004499;28;20114;-75
2021/12/22 14:02:35;;;;;;;16.65;8.05;;;;;;;;;;5005234;28;20031;-74
2021/12/22 14:05:18;;;;;;;18.77;7.53;;;;;;;;;;5017328;28;20562;-74
2021/12/22 14:07:44;;;;;;;13.88;7.80;;;;;;;;;;4991856;28;20107;-73
2021/12/22 14:10:16;;;;;;;16.03;8.67;;;;;;;;;;5001237;28;20053;-74
2021/12/22 14:12:44;;;;;;;23.67;8.18;;;;;;;;;;5004510;28;20073;-75
2021/12/22 14:15:12;;;;;;;16.10;9.18;;;;;;;;;;4997848;28;20042;-74
2021/12/22 14:17:44;;;;;;;14.45;8.32;;;;;;;;;;4998607;28;20502;-74
2021/12/22 14:20:21;;;;;;;15.27;8.18;;;;;;;;;;5026436;28;20030;-74
2021/12/22 14:22:55;;;;;;;;;;;;;;;;;;5013704;28;20529;-74
2021/12/22 14:25:25;;;;;;;19.80;8.02;;;;;;;;;;4996759;28;19928;-74
2021/12/22 14:27:53;;;;;;;15.73;8.00;;;;;;;;;;4985522;28;20042;-73
2021/12/22 14:30:28;;;;;;;16.48;8.68;;;;;;;;;;5016699;28;20471;-74
2021/12/22 14:33:00;;;;;;;16.95;8.98;;;;;;;;;;4988766;28;20096;-73
2021/12/22 14:35:31;;;;;;;32.30;12.48;;;;;;;;;;5012387;28;20058;-73
2021/12/22 14:38:02;;;;;;;15.43;7.47;;;;;;;;;;4994788;28;20043;-73
2021/12/22 14:40:29;;;;;;;18.40;9.00;;;;;;;;;;4992448;28;20122;-73
2021/12/22 14:43:06;;;;;;;18.55;8.10;;;;;;;;;;4977324;28;20526;-73
2021/12/22 14:45:40;;;;;;;14.80;8.43;;;;;;;;;;5009452;28;20122;-74
2021/12/22 14:48:15;;;;;;;18.25;9.80;;;;;;;;;;5002367;28;20042;-73
2021/12/22 14:50:54;;;;;;;19.83;9.73;;;;;;;;;;5015724;28;20045;-73
2021/12/22 14:53:27;;;;;;;15.82;9.13;;;;;;;;;;4997088;28;20062;-74
2021/12/22 14:55:56;;;;;;;22.58;9.13;;;;;;;;;;4999649;28;20089;-74
2021/12/22 14:58:22;;;;;;;18.98;9.48;;;;;;;;;;5009757;28;20041;-74